sensor_id;sensor_type;location;lat;lon;timestamp;P1;durP1;ratioP1;P2;durP2;ratioP2
84411;SDS011;74609;44.028;20.950;2024-01-30T00:02:13;45.17;;;27.80;;
84411;SDS011;74609;44.028;20.950;2024-01-30T00:04:39;50.92;;;29.52;;
84411;SDS011;74609;44.028;20.950;2024-01-30T00:07:05;46.30;;;28.38;;
84411;SDS011;74609;44.028;20.950;2024-01-30T00:09:31;48.67;;;28.00;;
84411;SDS011;74609;44.028;20.950;2024-01-30T00:11:57;48.17;;;29.38;;
84411;SDS011;74609;44.028;20.950;2024-01-30T00:14:23;50.50;;;28.70;;
84411;SDS011;74609;44.028;20.950;2024-01-30T00:16:50;49.20;;;29.05;;
84411;SDS011;74609;44.028;20.950;2024-01-30T00:19:16;46.45;;;28.42;;
84411;SDS011;74609;44.028;20.950;2024-01-30T00:21:42;44.75;;;26.42;;
84411;SDS011;74609;44.028;20.950;2024-01-30T00:24:08;43.72;;;26.15;;
84411;SDS011;74609;44.028;20.950;2024-01-30T00:26:35;45.72;;;26.70;;
84411;SDS011;74609;44.028;20.950;2024-01-30T00:29:01;49.38;;;28.30;;
84411;SDS011;74609;44.028;20.950;2024-01-30T00:31:27;46.63;;;27.02;;
84411;SDS011;74609;44.028;20.950;2024-01-30T00:33:54;48.63;;;27.38;;
84411;SDS011;74609;44.028;20.950;2024-01-30T00:36:20;52.47;;;28.67;;
84411;SDS011;74609;44.028;20.950;2024-01-30T00:38:46;49.95;;;28.40;;
84411;SDS011;74609;44.028;20.950;2024-01-30T00:41:12;41.90;;;24.48;;
84411;SDS011;74609;44.028;20.950;2024-01-30T00:43:38;45.92;;;26.67;;
84411;SDS011;74609;44.028;20.950;2024-01-30T00:46:04;44.20;;;25.60;;
84411;SDS011;74609;44.028;20.950;2024-01-30T00:48:30;40.67;;;24.50;;
84411;SDS011;74609;44.028;20.950;2024-01-30T00:50:56;41.60;;;25.85;;
84411;SDS011;74609;44.028;20.950;2024-01-30T00:53:22;43.70;;;25.20;;
84411;SDS011;74609;44.028;20.950;2024-01-30T00:55:48;49.10;;;27.23;;
84411;SDS011;74609;44.028;20.950;2024-01-30T00:58:14;48.40;;;27.20;;
84411;SDS011;74609;44.028;20.950;2024-01-30T01:00:41;45.63;;;26.73;;
84411;SDS011;74609;44.028;20.950;2024-01-30T01:03:07;32.38;;;19.60;;
84411;SDS011;74609;44.028;20.950;2024-01-30T01:05:33;32.10;;;19.92;;
84411;SDS011;74609;44.028;20.950;2024-01-30T01:07:59;32.88;;;20.38;;
84411;SDS011;74609;44.028;20.950;2024-01-30T01:10:25;34.70;;;19.98;;
84411;SDS011;74609;44.028;20.950;2024-01-30T01:12:53;38.03;;;20.67;;
84411;SDS011;74609;44.028;20.950;2024-01-30T01:15:19;31.77;;;19.25;;
84411;SDS011;74609;44.028;20.950;2024-01-30T01:17:45;34.95;;;20.45;;
84411;SDS011;74609;44.028;20.950;2024-01-30T01:20:11;34.95;;;20.70;;
84411;SDS011;74609;44.028;20.950;2024-01-30T01:22:37;35.33;;;21.88;;
84411;SDS011;74609;44.028;20.950;2024-01-30T01:25:04;32.95;;;20.70;;
84411;SDS011;74609;44.028;20.950;2024-01-30T01:27:33;34.15;;;20.30;;
84411;SDS011;74609;44.028;20.950;2024-01-30T01:29:59;40.03;;;25.33;;
84411;SDS011;74609;44.028;20.950;2024-01-30T01:32:26;40.72;;;24.00;;
84411;SDS011;74609;44.028;20.950;2024-01-30T01:34:52;57.83;;;33.38;;
84411;SDS011;74609;44.028;20.950;2024-01-30T01:37:18;77.03;;;43.05;;
84411;SDS011;74609;44.028;20.950;2024-01-30T01:39:46;66.65;;;37.20;;
84411;SDS011;74609;44.028;20.950;2024-01-30T01:42:12;56.88;;;33.55;;
84411;SDS011;74609;44.028;20.950;2024-01-30T01:44:38;62.60;;;36.78;;
84411;SDS011;74609;44.028;20.950;2024-01-30T01:47:04;62.20;;;35.05;;
84411;SDS011;74609;44.028;20.950;2024-01-30T01:49:31;52.15;;;31.25;;
84411;SDS011;74609;44.028;20.950;2024-01-30T01:51:57;51.08;;;29.60;;
84411;SDS011;74609;44.028;20.950;2024-01-30T01:54:24;44.90;;;26.98;;
84411;SDS011;74609;44.028;20.950;2024-01-30T01:56:51;45.03;;;27.88;;
84411;SDS011;74609;44.028;20.950;2024-01-30T01:59:17;42.17;;;25.17;;
84411;SDS011;74609;44.028;20.950;2024-01-30T02:01:44;41.15;;;24.65;;
84411;SDS011;74609;44.028;20.950;2024-01-30T02:04:14;36.83;;;23.42;;
84411;SDS011;74609;44.028;20.950;2024-01-30T02:06:40;38.22;;;22.55;;
84411;SDS011;74609;44.028;20.950;2024-01-30T02:09:06;36.20;;;21.15;;
84411;SDS011;74609;44.028;20.950;2024-01-30T02:11:35;37.10;;;23.15;;
84411;SDS011;74609;44.028;20.950;2024-01-30T02:14:04;32.45;;;21.08;;
84411;SDS011;74609;44.028;20.950;2024-01-30T02:16:31;36.70;;;22.83;;
84411;SDS011;74609;44.028;20.950;2024-01-30T02:18:57;40.53;;;24.77;;
84411;SDS011;74609;44.028;20.950;2024-01-30T02:21:23;37.58;;;21.63;;
84411;SDS011;74609;44.028;20.950;2024-01-30T02:23:49;38.70;;;24.08;;
84411;SDS011;74609;44.028;20.950;2024-01-30T02:26:16;39.88;;;24.38;;
84411;SDS011;74609;44.028;20.950;2024-01-30T02:28:42;37.42;;;23.08;;
84411;SDS011;74609;44.028;20.950;2024-01-30T02:31:08;36.92;;;21.92;;
84411;SDS011;74609;44.028;20.950;2024-01-30T02:33:34;33.03;;;20.85;;
84411;SDS011;74609;44.028;20.950;2024-01-30T02:36:00;34.88;;;20.52;;
84411;SDS011;74609;44.028;20.950;2024-01-30T02:38:26;32.13;;;19.20;;
84411;SDS011;74609;44.028;20.950;2024-01-30T02:40:53;29.05;;;18.77;;
84411;SDS011;74609;44.028;20.950;2024-01-30T02:43:20;33.15;;;19.73;;
84411;SDS011;74609;44.028;20.950;2024-01-30T02:45:46;31.17;;;19.05;;
84411;SDS011;74609;44.028;20.950;2024-01-30T02:48:12;32.67;;;19.15;;
84411;SDS011;74609;44.028;20.950;2024-01-30T02:50:38;33.05;;;20.33;;
84411;SDS011;74609;44.028;20.950;2024-01-30T02:53:04;31.45;;;18.75;;
84411;SDS011;74609;44.028;20.950;2024-01-30T02:55:30;31.08;;;18.92;;
84411;SDS011;74609;44.028;20.950;2024-01-30T02:57:56;34.15;;;20.85;;
84411;SDS011;74609;44.028;20.950;2024-01-30T03:00:23;33.95;;;20.20;;
84411;SDS011;74609;44.028;20.950;2024-01-30T03:02:49;32.30;;;18.80;;
84411;SDS011;74609;44.028;20.950;2024-01-30T03:05:15;32.17;;;19.35;;
84411;SDS011;74609;44.028;20.950;2024-01-30T03:07:41;37.47;;;22.00;;
84411;SDS011;74609;44.028;20.950;2024-01-30T03:10:08;39.40;;;23.08;;
84411;SDS011;74609;44.028;20.950;2024-01-30T03:12:34;43.47;;;24.98;;
84411;SDS011;74609;44.028;20.950;2024-01-30T03:15:00;40.08;;;23.73;;
84411;SDS011;74609;44.028;20.950;2024-01-30T03:17:26;48.25;;;26.35;;
84411;SDS011;74609;44.028;20.950;2024-01-30T03:19:52;44.15;;;25.27;;
84411;SDS011;74609;44.028;20.950;2024-01-30T03:22:18;46.13;;;26.65;;
84411;SDS011;74609;44.028;20.950;2024-01-30T03:24:44;47.40;;;25.63;;
84411;SDS011;74609;44.028;20.950;2024-01-30T03:27:10;43.75;;;24.73;;
84411;SDS011;74609;44.028;20.950;2024-01-30T03:29:36;38.67;;;23.80;;
84411;SDS011;74609;44.028;20.950;2024-01-30T03:32:02;34.58;;;20.63;;
84411;SDS011;74609;44.028;20.950;2024-01-30T03:34:29;35.80;;;21.60;;
84411;SDS011;74609;44.028;20.950;2024-01-30T03:36:55;36.30;;;20.25;;
84411;SDS011;74609;44.028;20.950;2024-01-30T03:39:21;33.70;;;19.65;;
84411;SDS011;74609;44.028;20.950;2024-01-30T03:41:47;32.70;;;19.38;;
84411;SDS011;74609;44.028;20.950;2024-01-30T03:44:13;30.13;;;18.15;;
84411;SDS011;74609;44.028;20.950;2024-01-30T03:46:39;30.30;;;17.77;;
84411;SDS011;74609;44.028;20.950;2024-01-30T03:49:05;29.20;;;17.55;;
84411;SDS011;74609;44.028;20.950;2024-01-30T03:51:31;31.80;;;18.63;;
84411;SDS011;74609;44.028;20.950;2024-01-30T03:53:57;31.25;;;17.27;;
84411;SDS011;74609;44.028;20.950;2024-01-30T03:56:24;27.98;;;16.90;;
84411;SDS011;74609;44.028;20.950;2024-01-30T03:58:53;28.48;;;16.00;;
84411;SDS011;74609;44.028;20.950;2024-01-30T04:01:19;29.67;;;17.52;;
84411;SDS011;74609;44.028;20.950;2024-01-30T04:03:45;27.75;;;17.52;;
84411;SDS011;74609;44.028;20.950;2024-01-30T04:06:11;28.23;;;17.48;;
84411;SDS011;74609;44.028;20.950;2024-01-30T04:08:37;24.55;;;16.67;;
84411;SDS011;74609;44.028;20.950;2024-01-30T04:11:04;29.40;;;18.00;;
84411;SDS011;74609;44.028;20.950;2024-01-30T04:13:33;26.92;;;16.60;;
84411;SDS011;74609;44.028;20.950;2024-01-30T04:16:00;30.13;;;17.15;;
84411;SDS011;74609;44.028;20.950;2024-01-30T04:18:27;30.95;;;16.13;;
84411;SDS011;74609;44.028;20.950;2024-01-30T04:20:53;27.92;;;17.00;;
84411;SDS011;74609;44.028;20.950;2024-01-30T04:23:19;25.30;;;15.88;;
84411;SDS011;74609;44.028;20.950;2024-01-30T04:25:45;26.27;;;16.05;;
84411;SDS011;74609;44.028;20.950;2024-01-30T04:28:11;25.10;;;16.20;;
84411;SDS011;74609;44.028;20.950;2024-01-30T04:30:38;23.55;;;15.38;;
84411;SDS011;74609;44.028;20.950;2024-01-30T04:33:04;26.17;;;15.50;;
84411;SDS011;74609;44.028;20.950;2024-01-30T04:35:30;25.30;;;16.10;;
84411;SDS011;74609;44.028;20.950;2024-01-30T04:37:57;27.58;;;16.60;;
84411;SDS011;74609;44.028;20.950;2024-01-30T04:40:23;31.98;;;19.15;;
84411;SDS011;74609;44.028;20.950;2024-01-30T04:42:49;42.28;;;23.23;;
84411;SDS011;74609;44.028;20.950;2024-01-30T04:45:15;30.48;;;19.08;;
84411;SDS011;74609;44.028;20.950;2024-01-30T04:47:41;34.63;;;19.58;;
84411;SDS011;74609;44.028;20.950;2024-01-30T04:50:08;39.80;;;21.55;;
84411;SDS011;74609;44.028;20.950;2024-01-30T04:52:34;36.53;;;20.65;;
84411;SDS011;74609;44.028;20.950;2024-01-30T04:55:00;36.17;;;20.88;;
84411;SDS011;74609;44.028;20.950;2024-01-30T04:57:26;37.35;;;20.27;;
84411;SDS011;74609;44.028;20.950;2024-01-30T04:59:53;31.88;;;17.88;;
84411;SDS011;74609;44.028;20.950;2024-01-30T05:02:19;36.15;;;17.38;;
84411;SDS011;74609;44.028;20.950;2024-01-30T05:04:45;35.40;;;18.13;;
84411;SDS011;74609;44.028;20.950;2024-01-30T05:07:11;33.17;;;16.23;;
84411;SDS011;74609;44.028;20.950;2024-01-30T05:09:37;35.40;;;17.48;;
84411;SDS011;74609;44.028;20.950;2024-01-30T05:12:03;31.10;;;17.42;;
84411;SDS011;74609;44.028;20.950;2024-01-30T05:14:29;32.38;;;17.83;;
84411;SDS011;74609;44.028;20.950;2024-01-30T05:16:55;32.88;;;16.92;;
84411;SDS011;74609;44.028;20.950;2024-01-30T05:19:21;33.65;;;17.77;;
84411;SDS011;74609;44.028;20.950;2024-01-30T05:21:48;34.47;;;17.60;;
84411;SDS011;74609;44.028;20.950;2024-01-30T05:24:14;30.33;;;17.20;;
84411;SDS011;74609;44.028;20.950;2024-01-30T05:26:41;37.85;;;18.38;;
84411;SDS011;74609;44.028;20.950;2024-01-30T05:29:07;30.02;;;16.38;;
84411;SDS011;74609;44.028;20.950;2024-01-30T05:31:36;31.25;;;17.45;;
84411;SDS011;74609;44.028;20.950;2024-01-30T05:34:02;28.17;;;15.43;;
84411;SDS011;74609;44.028;20.950;2024-01-30T05:36:28;32.75;;;16.55;;
84411;SDS011;74609;44.028;20.950;2024-01-30T05:38:55;26.35;;;15.80;;
84411;SDS011;74609;44.028;20.950;2024-01-30T05:41:21;27.67;;;16.25;;
84411;SDS011;74609;44.028;20.950;2024-01-30T05:43:47;24.60;;;14.60;;
84411;SDS011;74609;44.028;20.950;2024-01-30T05:46:13;28.17;;;15.10;;
84411;SDS011;74609;44.028;20.950;2024-01-30T05:48:39;31.38;;;15.90;;
84411;SDS011;74609;44.028;20.950;2024-01-30T05:51:06;25.08;;;13.65;;
84411;SDS011;74609;44.028;20.950;2024-01-30T05:53:33;24.95;;;14.73;;
84411;SDS011;74609;44.028;20.950;2024-01-30T05:56:00;32.33;;;17.40;;
84411;SDS011;74609;44.028;20.950;2024-01-30T05:58:27;36.30;;;16.45;;
84411;SDS011;74609;44.028;20.950;2024-01-30T06:00:53;30.30;;;16.08;;
84411;SDS011;74609;44.028;20.950;2024-01-30T06:03:23;30.40;;;16.67;;
84411;SDS011;74609;44.028;20.950;2024-01-30T06:05:49;30.23;;;17.83;;
84411;SDS011;74609;44.028;20.950;2024-01-30T06:08:15;34.28;;;18.13;;
84411;SDS011;74609;44.028;20.950;2024-01-30T06:10:41;35.92;;;19.85;;
84411;SDS011;74609;44.028;20.950;2024-01-30T06:13:08;42.53;;;22.30;;
84411;SDS011;74609;44.028;20.950;2024-01-30T06:15:34;38.17;;;22.70;;
84411;SDS011;74609;44.028;20.950;2024-01-30T06:18:00;36.58;;;19.58;;
84411;SDS011;74609;44.028;20.950;2024-01-30T06:20:26;35.53;;;20.63;;
84411;SDS011;74609;44.028;20.950;2024-01-30T06:22:52;27.88;;;17.25;;
84411;SDS011;74609;44.028;20.950;2024-01-30T06:25:18;33.55;;;19.73;;
84411;SDS011;74609;44.028;20.950;2024-01-30T06:27:44;41.00;;;23.35;;
84411;SDS011;74609;44.028;20.950;2024-01-30T06:30:11;37.40;;;19.60;;
84411;SDS011;74609;44.028;20.950;2024-01-30T06:32:37;40.92;;;20.67;;
84411;SDS011;74609;44.028;20.950;2024-01-30T06:35:03;36.95;;;18.38;;
84411;SDS011;74609;44.028;20.950;2024-01-30T06:37:30;30.98;;;16.80;;
84411;SDS011;74609;44.028;20.950;2024-01-30T06:39:56;27.00;;;16.00;;
84411;SDS011;74609;44.028;20.950;2024-01-30T06:42:22;29.65;;;17.85;;
84411;SDS011;74609;44.028;20.950;2024-01-30T06:44:48;29.58;;;16.42;;
84411;SDS011;74609;44.028;20.950;2024-01-30T06:47:14;29.58;;;15.00;;
84411;SDS011;74609;44.028;20.950;2024-01-30T06:49:40;31.08;;;16.33;;
84411;SDS011;74609;44.028;20.950;2024-01-30T06:52:09;25.25;;;14.35;;
84411;SDS011;74609;44.028;20.950;2024-01-30T06:54:35;29.38;;;15.65;;
84411;SDS011;74609;44.028;20.950;2024-01-30T06:57:01;29.63;;;17.38;;
84411;SDS011;74609;44.028;20.950;2024-01-30T06:59:28;32.90;;;15.93;;
84411;SDS011;74609;44.028;20.950;2024-01-30T07:01:54;69.80;;;38.53;;
84411;SDS011;74609;44.028;20.950;2024-01-30T07:04:20;79.72;;;43.08;;
84411;SDS011;74609;44.028;20.950;2024-01-30T07:06:46;69.38;;;38.83;;
84411;SDS011;74609;44.028;20.950;2024-01-30T07:09:12;40.38;;;21.75;;
84411;SDS011;74609;44.028;20.950;2024-01-30T07:11:38;38.15;;;21.27;;
84411;SDS011;74609;44.028;20.950;2024-01-30T07:14:04;43.72;;;22.02;;
84411;SDS011;74609;44.028;20.950;2024-01-30T07:16:30;39.55;;;21.85;;
84411;SDS011;74609;44.028;20.950;2024-01-30T07:18:57;43.30;;;24.48;;
84411;SDS011;74609;44.028;20.950;2024-01-30T07:21:23;42.80;;;22.48;;
84411;SDS011;74609;44.028;20.950;2024-01-30T07:23:53;44.03;;;22.80;;
84411;SDS011;74609;44.028;20.950;2024-01-30T07:26:20;50.20;;;23.15;;
84411;SDS011;74609;44.028;20.950;2024-01-30T07:28:46;37.85;;;19.17;;
84411;SDS011;74609;44.028;20.950;2024-01-30T07:31:12;36.95;;;19.65;;
84411;SDS011;74609;44.028;20.950;2024-01-30T07:33:38;36.33;;;20.80;;
84411;SDS011;74609;44.028;20.950;2024-01-30T07:36:04;34.63;;;21.02;;
84411;SDS011;74609;44.028;20.950;2024-01-30T07:38:33;36.55;;;20.23;;
84411;SDS011;74609;44.028;20.950;2024-01-30T07:41:00;36.17;;;21.08;;
84411;SDS011;74609;44.028;20.950;2024-01-30T07:43:26;34.33;;;18.65;;
84411;SDS011;74609;44.028;20.950;2024-01-30T07:45:52;35.95;;;18.77;;
84411;SDS011;74609;44.028;20.950;2024-01-30T07:48:18;37.20;;;19.13;;
84411;SDS011;74609;44.028;20.950;2024-01-30T07:50:44;31.25;;;18.13;;
84411;SDS011;74609;44.028;20.950;2024-01-30T07:53:10;29.60;;;17.45;;
84411;SDS011;74609;44.028;20.950;2024-01-30T07:55:40;32.22;;;16.98;;
84411;SDS011;74609;44.028;20.950;2024-01-30T07:58:07;29.65;;;17.67;;
84411;SDS011;74609;44.028;20.950;2024-01-30T08:00:34;29.73;;;17.58;;
84411;SDS011;74609;44.028;20.950;2024-01-30T08:03:00;36.25;;;18.15;;
84411;SDS011;74609;44.028;20.950;2024-01-30T08:05:26;29.77;;;17.83;;
84411;SDS011;74609;44.028;20.950;2024-01-30T08:07:52;27.73;;;17.35;;
84411;SDS011;74609;44.028;20.950;2024-01-30T08:10:18;29.98;;;16.85;;
84411;SDS011;74609;44.028;20.950;2024-01-30T08:12:44;30.75;;;16.98;;
84411;SDS011;74609;44.028;20.950;2024-01-30T08:15:11;34.45;;;18.52;;
84411;SDS011;74609;44.028;20.950;2024-01-30T08:17:38;30.17;;;17.92;;
84411;SDS011;74609;44.028;20.950;2024-01-30T08:20:04;31.67;;;18.48;;
84411;SDS011;74609;44.028;20.950;2024-01-30T08:22:30;30.90;;;18.75;;
84411;SDS011;74609;44.028;20.950;2024-01-30T08:24:56;30.98;;;19.20;;
84411;SDS011;74609;44.028;20.950;2024-01-30T08:27:23;25.73;;;17.05;;
84411;SDS011;74609;44.028;20.950;2024-01-30T08:29:49;30.38;;;18.73;;
84411;SDS011;74609;44.028;20.950;2024-01-30T08:32:15;27.40;;;18.13;;
84411;SDS011;74609;44.028;20.950;2024-01-30T08:34:41;29.73;;;17.45;;
84411;SDS011;74609;44.028;20.950;2024-01-30T08:37:07;31.00;;;18.05;;
84411;SDS011;74609;44.028;20.950;2024-01-30T08:39:34;28.50;;;17.52;;
84411;SDS011;74609;44.028;20.950;2024-01-30T08:42:00;33.33;;;18.50;;
84411;SDS011;74609;44.028;20.950;2024-01-30T08:44:26;32.13;;;18.58;;
84411;SDS011;74609;44.028;20.950;2024-01-30T08:46:52;31.50;;;18.02;;
84411;SDS011;74609;44.028;20.950;2024-01-30T08:49:19;33.08;;;18.67;;
84411;SDS011;74609;44.028;20.950;2024-01-30T08:51:46;27.77;;;18.55;;
84411;SDS011;74609;44.028;20.950;2024-01-30T08:54:12;31.02;;;19.92;;
84411;SDS011;74609;44.028;20.950;2024-01-30T08:56:38;30.60;;;18.67;;
84411;SDS011;74609;44.028;20.950;2024-01-30T08:59:04;27.80;;;18.73;;
84411;SDS011;74609;44.028;20.950;2024-01-30T09:01:30;27.45;;;17.95;;
84411;SDS011;74609;44.028;20.950;2024-01-30T09:03:56;65.03;;;45.50;;
84411;SDS011;74609;44.028;20.950;2024-01-30T09:06:23;67.95;;;51.20;;
84411;SDS011;74609;44.028;20.950;2024-01-30T09:08:53;80.72;;;57.80;;
84411;SDS011;74609;44.028;20.950;2024-01-30T09:11:19;36.30;;;22.75;;
84411;SDS011;74609;44.028;20.950;2024-01-30T09:13:45;41.10;;;25.15;;
84411;SDS011;74609;44.028;20.950;2024-01-30T09:16:14;42.22;;;25.48;;
84411;SDS011;74609;44.028;20.950;2024-01-30T09:18:41;38.63;;;25.27;;
84411;SDS011;74609;44.028;20.950;2024-01-30T09:21:10;39.13;;;25.77;;
84411;SDS011;74609;44.028;20.950;2024-01-30T09:23:36;38.60;;;25.42;;
84411;SDS011;74609;44.028;20.950;2024-01-30T09:26:02;42.72;;;25.45;;
84411;SDS011;74609;44.028;20.950;2024-01-30T09:28:29;41.05;;;25.65;;
84411;SDS011;74609;44.028;20.950;2024-01-30T09:30:56;36.53;;;24.27;;
84411;SDS011;74609;44.028;20.950;2024-01-30T09:33:22;36.35;;;25.23;;
84411;SDS011;74609;44.028;20.950;2024-01-30T09:35:48;35.85;;;24.88;;
84411;SDS011;74609;44.028;20.950;2024-01-30T09:38:16;34.97;;;26.05;;
84411;SDS011;74609;44.028;20.950;2024-01-30T09:40:42;34.28;;;24.92;;
84411;SDS011;74609;44.028;20.950;2024-01-30T09:43:08;34.15;;;24.95;;
84411;SDS011;74609;44.028;20.950;2024-01-30T09:45:36;33.22;;;23.35;;
84411;SDS011;74609;44.028;20.950;2024-01-30T09:48:03;34.95;;;23.27;;
84411;SDS011;74609;44.028;20.950;2024-01-30T09:50:29;32.50;;;22.80;;
84411;SDS011;74609;44.028;20.950;2024-01-30T09:52:56;34.58;;;23.05;;
84411;SDS011;74609;44.028;20.950;2024-01-30T09:55:22;30.63;;;22.83;;
84411;SDS011;74609;44.028;20.950;2024-01-30T09:57:49;30.65;;;22.17;;
84411;SDS011;74609;44.028;20.950;2024-01-30T10:00:15;30.10;;;22.25;;
84411;SDS011;74609;44.028;20.950;2024-01-30T10:02:41;32.50;;;22.75;;
84411;SDS011;74609;44.028;20.950;2024-01-30T10:05:08;29.23;;;21.15;;
84411;SDS011;74609;44.028;20.950;2024-01-30T10:07:34;27.73;;;20.33;;
84411;SDS011;74609;44.028;20.950;2024-01-30T10:10:00;27.00;;;20.25;;
84411;SDS011;74609;44.028;20.950;2024-01-30T10:12:26;28.33;;;19.85;;
84411;SDS011;74609;44.028;20.950;2024-01-30T10:14:53;28.73;;;19.55;;
84411;SDS011;74609;44.028;20.950;2024-01-30T10:17:19;26.13;;;19.42;;
84411;SDS011;74609;44.028;20.950;2024-01-30T10:19:46;28.40;;;20.10;;
84411;SDS011;74609;44.028;20.950;2024-01-30T10:22:12;25.80;;;19.05;;
84411;SDS011;74609;44.028;20.950;2024-01-30T10:24:38;24.48;;;17.85;;
84411;SDS011;74609;44.028;20.950;2024-01-30T10:27:05;13.93;;;9.68;;
84411;SDS011;74609;44.028;20.950;2024-01-30T10:29:32;9.02;;;6.55;;
84411;SDS011;74609;44.028;20.950;2024-01-30T10:32:01;23.00;;;17.60;;
84411;SDS011;74609;44.028;20.950;2024-01-30T10:34:28;40.85;;;27.15;;
84411;SDS011;74609;44.028;20.950;2024-01-30T10:39:29;7.78;;;5.80;;
84411;SDS011;74609;44.028;20.950;2024-01-30T10:41:56;6.25;;;4.97;;
84411;SDS011;74609;44.028;20.950;2024-01-30T10:44:27;6.43;;;4.72;;
84411;SDS011;74609;44.028;20.950;2024-01-30T10:46:58;6.15;;;4.22;;
84411;SDS011;74609;44.028;20.950;2024-01-30T10:49:26;5.47;;;3.53;;
84411;SDS011;74609;44.028;20.950;2024-01-30T10:51:53;5.75;;;3.38;;
84411;SDS011;74609;44.028;20.950;2024-01-30T10:54:20;4.32;;;3.28;;
84411;SDS011;74609;44.028;20.950;2024-01-30T10:56:46;4.10;;;2.95;;
84411;SDS011;74609;44.028;20.950;2024-01-30T10:59:13;6.05;;;5.18;;
84411;SDS011;74609;44.028;20.950;2024-01-30T11:01:39;4.47;;;3.15;;
84411;SDS011;74609;44.028;20.950;2024-01-30T11:04:05;6.97;;;3.50;;
84411;SDS011;74609;44.028;20.950;2024-01-30T11:06:32;5.22;;;3.30;;
84411;SDS011;74609;44.028;20.950;2024-01-30T11:09:09;6.72;;;3.50;;
84411;SDS011;74609;44.028;20.950;2024-01-30T11:14:25;4.60;;;3.35;;
84411;SDS011;74609;44.028;20.950;2024-01-30T11:16:51;6.05;;;3.83;;
84411;SDS011;74609;44.028;20.950;2024-01-30T11:19:27;4.72;;;3.30;;
84411;SDS011;74609;44.028;20.950;2024-01-30T11:21:53;6.65;;;3.95;;
84411;SDS011;74609;44.028;20.950;2024-01-30T11:24:22;6.75;;;3.70;;
84411;SDS011;74609;44.028;20.950;2024-01-30T11:26:49;8.55;;;3.80;;
84411;SDS011;74609;44.028;20.950;2024-01-30T11:29:16;6.30;;;3.25;;
84411;SDS011;74609;44.028;20.950;2024-01-30T11:32:01;6.72;;;3.90;;
84411;SDS011;74609;44.028;20.950;2024-01-30T11:34:27;8.18;;;3.63;;
84411;SDS011;74609;44.028;20.950;2024-01-30T11:36:58;5.40;;;3.58;;
84411;SDS011;74609;44.028;20.950;2024-01-30T11:39:25;5.18;;;3.42;;
84411;SDS011;74609;44.028;20.950;2024-01-30T11:41:51;9.70;;;3.97;;
84411;SDS011;74609;44.028;20.950;2024-01-30T11:44:21;5.10;;;3.80;;
84411;SDS011;74609;44.028;20.950;2024-01-30T11:46:48;7.85;;;4.18;;
84411;SDS011;74609;44.028;20.950;2024-01-30T11:49:14;12.50;;;3.97;;
84411;SDS011;74609;44.028;20.950;2024-01-30T11:51:42;6.95;;;3.88;;
84411;SDS011;74609;44.028;20.950;2024-01-30T11:54:08;7.00;;;4.22;;
84411;SDS011;74609;44.028;20.950;2024-01-30T11:56:34;6.47;;;3.75;;
84411;SDS011;74609;44.028;20.950;2024-01-30T11:59:01;4.75;;;3.10;;
84411;SDS011;74609;44.028;20.950;2024-01-30T12:01:27;6.00;;;3.60;;
84411;SDS011;74609;44.028;20.950;2024-01-30T12:03:53;7.05;;;3.13;;
84411;SDS011;74609;44.028;20.950;2024-01-30T12:06:19;4.50;;;3.65;;
84411;SDS011;74609;44.028;20.950;2024-01-30T12:09:01;8.05;;;3.33;;
84411;SDS011;74609;44.028;20.950;2024-01-30T12:11:44;5.60;;;3.60;;
84411;SDS011;74609;44.028;20.950;2024-01-30T12:14:10;6.63;;;3.58;;
84411;SDS011;74609;44.028;20.950;2024-01-30T12:16:36;6.63;;;3.45;;
84411;SDS011;74609;44.028;20.950;2024-01-30T12:19:03;7.03;;;3.63;;
84411;SDS011;74609;44.028;20.950;2024-01-30T12:21:29;5.30;;;3.83;;
84411;SDS011;74609;44.028;20.950;2024-01-30T12:23:58;8.75;;;4.13;;
84411;SDS011;74609;44.028;20.950;2024-01-30T12:26:25;5.85;;;3.72;;
84411;SDS011;74609;44.028;20.950;2024-01-30T12:28:55;5.22;;;3.60;;
84411;SDS011;74609;44.028;20.950;2024-01-30T12:31:29;4.72;;;3.10;;
84411;SDS011;74609;44.028;20.950;2024-01-30T12:33:59;5.68;;;3.50;;
84411;SDS011;74609;44.028;20.950;2024-01-30T12:36:25;5.13;;;3.90;;
84411;SDS011;74609;44.028;20.950;2024-01-30T12:38:52;7.90;;;3.63;;
84411;SDS011;74609;44.028;20.950;2024-01-30T12:41:19;7.10;;;3.72;;
84411;SDS011;74609;44.028;20.950;2024-01-30T12:43:45;5.78;;;3.25;;
84411;SDS011;74609;44.028;20.950;2024-01-30T12:46:12;7.20;;;3.50;;
84411;SDS011;74609;44.028;20.950;2024-01-30T12:48:38;7.05;;;3.47;;
84411;SDS011;74609;44.028;20.950;2024-01-30T12:51:05;6.10;;;3.08;;
84411;SDS011;74609;44.028;20.950;2024-01-30T12:53:31;5.15;;;3.03;;
84411;SDS011;74609;44.028;20.950;2024-01-30T12:55:57;8.57;;;3.47;;
84411;SDS011;74609;44.028;20.950;2024-01-30T12:58:23;9.05;;;3.60;;
84411;SDS011;74609;44.028;20.950;2024-01-30T13:00:49;6.72;;;3.05;;
84411;SDS011;74609;44.028;20.950;2024-01-30T13:03:16;7.30;;;3.15;;
84411;SDS011;74609;44.028;20.950;2024-01-30T13:05:42;6.32;;;3.22;;
84411;SDS011;74609;44.028;20.950;2024-01-30T13:08:08;5.32;;;3.00;;
84411;SDS011;74609;44.028;20.950;2024-01-30T13:10:34;5.93;;;3.38;;
84411;SDS011;74609;44.028;20.950;2024-01-30T13:13:00;5.22;;;3.03;;
84411;SDS011;74609;44.028;20.950;2024-01-30T13:15:27;3.58;;;2.75;;
84411;SDS011;74609;44.028;20.950;2024-01-30T13:17:53;5.68;;;2.78;;
84411;SDS011;74609;44.028;20.950;2024-01-30T13:20:19;5.78;;;3.38;;
84411;SDS011;74609;44.028;20.950;2024-01-30T13:22:49;3.05;;;2.63;;
84411;SDS011;74609;44.028;20.950;2024-01-30T13:25:15;4.47;;;2.92;;
84411;SDS011;74609;44.028;20.950;2024-01-30T13:27:42;4.22;;;2.80;;
84411;SDS011;74609;44.028;20.950;2024-01-30T13:30:08;4.28;;;2.92;;
84411;SDS011;74609;44.028;20.950;2024-01-30T13:32:34;4.70;;;2.90;;
84411;SDS011;74609;44.028;20.950;2024-01-30T13:35:01;4.60;;;3.08;;
84411;SDS011;74609;44.028;20.950;2024-01-30T13:37:27;9.82;;;3.72;;
84411;SDS011;74609;44.028;20.950;2024-01-30T13:39:53;6.97;;;3.30;;
84411;SDS011;74609;44.028;20.950;2024-01-30T13:42:19;5.60;;;3.53;;
84411;SDS011;74609;44.028;20.950;2024-01-30T13:44:45;6.28;;;3.72;;
84411;SDS011;74609;44.028;20.950;2024-01-30T13:47:11;10.38;;;5.20;;
84411;SDS011;74609;44.028;20.950;2024-01-30T13:49:38;9.10;;;4.90;;
84411;SDS011;74609;44.028;20.950;2024-01-30T13:52:06;7.75;;;4.25;;
84411;SDS011;74609;44.028;20.950;2024-01-30T13:54:33;5.05;;;3.25;;
84411;SDS011;74609;44.028;20.950;2024-01-30T13:56:59;6.00;;;3.92;;
84411;SDS011;74609;44.028;20.950;2024-01-30T13:59:25;3.95;;;3.30;;
84411;SDS011;74609;44.028;20.950;2024-01-30T14:01:52;6.65;;;3.78;;
84411;SDS011;74609;44.028;20.950;2024-01-30T14:04:18;5.53;;;3.55;;
84411;SDS011;74609;44.028;20.950;2024-01-30T14:06:44;10.40;;;3.88;;
84411;SDS011;74609;44.028;20.950;2024-01-30T14:09:10;5.88;;;3.38;;
84411;SDS011;74609;44.028;20.950;2024-01-30T14:11:36;14.07;;;11.25;;
84411;SDS011;74609;44.028;20.950;2024-01-30T14:14:05;5.15;;;4.43;;
84411;SDS011;74609;44.028;20.950;2024-01-30T14:16:31;21.70;;;15.48;;
84411;SDS011;74609;44.028;20.950;2024-01-30T14:18:57;243.02;;;117.07;;